sensor_id;sensor_type;location;lat;lon;timestamp;pressure;altitude;pressure_sealevel;temperature;humidity
21838;BME280;11081;45.946;6.140;2023-04-25T00:01:36;94740.06;;;12.26;65.74
21838;BME280;11081;45.946;6.140;2023-04-25T00:04:04;94748.94;;;12.25;66.97
21838;BME280;11081;45.946;6.140;2023-04-25T00:06:34;94742.94;;;12.07;66.14
21838;BME280;11081;45.946;6.140;2023-04-25T00:09:02;94741.19;;;11.63;67.15
21838;BME280;11081;45.946;6.140;2023-04-25T00:11:35;94740.56;;;11.72;67.44
21838;BME280;11081;45.946;6.140;2023-04-25T00:14:03;94741.28;;;11.68;67.44
21838;BME280;11081;45.946;6.140;2023-04-25T00:16:33;94748.09;;;11.69;67.59
21838;BME280;11081;45.946;6.140;2023-04-25T00:19:02;94748.88;;;11.52;68.17
21838;BME280;11081;45.946;6.140;2023-04-25T00:21:30;94745.44;;;11.35;69.25
21838;BME280;11081;45.946;6.140;2023-04-25T00:23:59;94748.94;;;11.57;68.63
21838;BME280;11081;45.946;6.140;2023-04-25T00:26:27;94745.50;;;11.69;68.63
21838;BME280;11081;45.946;6.140;2023-04-25T00:28:56;94739.47;;;11.85;68.37
21838;BME280;11081;45.946;6.140;2023-04-25T00:31:24;94730.75;;;11.96;67.85
21838;BME280;11081;45.946;6.140;2023-04-25T00:33:52;94739.00;;;12.05;67.65
21838;BME280;11081;45.946;6.140;2023-04-25T00:36:20;94731.06;;;12.16;67.20
21838;BME280;11081;45.946;6.140;2023-04-25T00:38:49;94732.16;;;12.20;67.36
21838;BME280;11081;45.946;6.140;2023-04-25T00:41:17;94723.28;;;12.21;68.03
21838;BME280;11081;45.946;6.140;2023-04-25T00:43:47;94728.50;;;12.21;68.20
21838;BME280;11081;45.946;6.140;2023-04-25T00:46:17;94722.19;;;12.17;68.97
21838;BME280;11081;45.946;6.140;2023-04-25T00:48:45;94719.50;;;12.12;69.60
21838;BME280;11081;45.946;6.140;2023-04-25T00:51:16;94717.44;;;12.14;69.91
21838;BME280;11081;45.946;6.140;2023-04-25T00:53:44;94719.00;;;12.15;69.75
21838;BME280;11081;45.946;6.140;2023-04-25T00:56:13;94710.13;;;12.16;69.62
21838;BME280;11081;45.946;6.140;2023-04-25T00:58:42;94703.81;;;12.12;69.84
21838;BME280;11081;45.946;6.140;2023-04-25T01:01:11;94703.81;;;12.12;69.63
21838;BME280;11081;45.946;6.140;2023-04-25T01:03:40;94695.94;;;12.12;69.92
21838;BME280;11081;45.946;6.140;2023-04-25T01:06:10;94694.38;;;12.11;70.30
21838;BME280;11081;45.946;6.140;2023-04-25T01:08:39;94696.19;;;12.11;70.96
21838;BME280;11081;45.946;6.140;2023-04-25T01:11:07;94690.19;;;12.10;70.51
21838;BME280;11081;45.946;6.140;2023-04-25T01:13:35;94689.38;;;12.10;70.82
21838;BME280;11081;45.946;6.140;2023-04-25T01:16:04;94677.16;;;12.15;70.58
21838;BME280;11081;45.946;6.140;2023-04-25T01:18:32;94675.09;;;12.17;70.58
21838;BME280;11081;45.946;6.140;2023-04-25T01:21:08;94678.13;;;12.09;71.18
21838;BME280;11081;45.946;6.140;2023-04-25T01:23:38;94677.50;;;12.02;71.98
21838;BME280;11081;45.946;6.140;2023-04-25T01:26:08;94675.84;;;11.96;72.19
21838;BME280;11081;45.946;6.140;2023-04-25T01:28:37;94670.63;;;11.96;71.01
21838;BME280;11081;45.946;6.140;2023-04-25T01:31:09;94699.06;;;11.76;72.86
21838;BME280;11081;45.946;6.140;2023-04-25T01:33:39;94698.22;;;11.08;75.36
21838;BME280;11081;45.946;6.140;2023-04-25T01:36:08;94694.63;;;11.26;75.42
21838;BME280;11081;45.946;6.140;2023-04-25T01:38:36;94680.84;;;11.47;75.11
21838;BME280;11081;45.946;6.140;2023-04-25T01:41:05;94677.66;;;11.62;75.35
21838;BME280;11081;45.946;6.140;2023-04-25T01:43:33;94670.72;;;11.68;75.35
21838;BME280;11081;45.946;6.140;2023-04-25T01:46:01;94678.31;;;11.69;75.20
21838;BME280;11081;45.946;6.140;2023-04-25T01:48:29;94681.78;;;11.75;75.48
21838;BME280;11081;45.946;6.140;2023-04-25T01:50:57;94688.59;;;11.76;75.90
21838;BME280;11081;45.946;6.140;2023-04-25T01:53:29;94679.72;;;11.77;75.30
21838;BME280;11081;45.946;6.140;2023-04-25T01:56:02;94684.50;;;11.80;75.29
21838;BME280;11081;45.946;6.140;2023-04-25T01:58:33;94679.28;;;11.80;75.61
21838;BME280;11081;45.946;6.140;2023-04-25T02:01:19;94674.50;;;11.77;75.97
21838;BME280;11081;45.946;6.140;2023-04-25T02:04:02;94662.00;;;11.79;75.64
21838;BME280;11081;45.946;6.140;2023-04-25T02:06:34;94666.75;;;11.82;75.56
21838;BME280;11081;45.946;6.140;2023-04-25T02:09:04;94657.78;;;11.78;76.07
21838;BME280;11081;45.946;6.140;2023-04-25T02:11:32;94660.38;;;11.78;76.27
21838;BME280;11081;45.946;6.140;2023-04-25T02:14:18;94652.63;;;11.83;75.89
21838;BME280;11081;45.946;6.140;2023-04-25T02:16:57;94644.56;;;11.84;75.77
21838;BME280;11081;45.946;6.140;2023-04-25T02:19:25;94650.56;;;11.85;75.77
21838;BME280;11081;45.946;6.140;2023-04-25T02:21:53;94642.03;;;11.73;75.92
21838;BME280;11081;45.946;6.140;2023-04-25T02:24:23;94638.84;;;11.71;76.21
21838;BME280;11081;45.946;6.140;2023-04-25T02:26:51;94638.84;;;11.71;76.00
21838;BME280;11081;45.946;6.140;2023-04-25T02:29:19;94638.06;;;11.70;75.93
21838;BME280;11081;45.946;6.140;2023-04-25T02:31:47;94638.56;;;11.67;75.65
21838;BME280;11081;45.946;6.140;2023-04-25T02:34:16;94637.75;;;11.67;75.10
21838;BME280;11081;45.946;6.140;2023-04-25T02:36:44;94642.50;;;11.70;75.13
21838;BME280;11081;45.946;6.140;2023-04-25T02:39:12;94644.09;;;11.71;75.31
21838;BME280;11081;45.946;6.140;2023-04-25T02:41:41;94632.59;;;11.72;74.90
21838;BME280;11081;45.946;6.140;2023-04-25T02:44:09;94635.22;;;11.72;74.80
21838;BME280;11081;45.946;6.140;2023-04-25T02:46:37;94636.50;;;11.69;75.90
21838;BME280;11081;45.946;6.140;2023-04-25T02:49:06;94642.41;;;11.65;76.09
21838;BME280;11081;45.946;6.140;2023-04-25T02:51:35;94638.22;;;11.64;76.30
21838;BME280;11081;45.946;6.140;2023-04-25T02:54:03;94635.84;;;11.62;75.92
21838;BME280;11081;45.946;6.140;2023-04-25T02:56:35;94636.00;;;11.55;76.11
21838;BME280;11081;45.946;6.140;2023-04-25T02:59:09;94644.09;;;11.54;76.31
21838;BME280;11081;45.946;6.140;2023-04-25T03:01:37;94644.66;;;11.39;75.98
21838;BME280;11081;45.946;6.140;2023-04-25T03:04:05;94651.31;;;11.30;76.73
21838;BME280;11081;45.946;6.140;2023-04-25T03:06:34;94643.94;;;11.27;77.35
21838;BME280;11081;45.946;6.140;2023-04-25T03:09:02;94653.75;;;11.20;78.43
21838;BME280;11081;45.946;6.140;2023-04-25T03:11:30;94651.88;;;11.32;77.90
21838;BME280;11081;45.946;6.140;2023-04-25T03:14:00;94650.66;;;11.23;76.90
21838;BME280;11081;45.946;6.140;2023-04-25T03:16:29;94666.28;;;10.61;80.70
21838;BME280;11081;45.946;6.140;2023-04-25T03:18:57;94667.09;;;10.21;83.28
21838;BME280;11081;45.946;6.140;2023-04-25T03:21:26;94673.63;;;10.12;84.21
21838;BME280;11081;45.946;6.140;2023-04-25T03:23:54;94672.84;;;10.12;83.75
21838;BME280;11081;45.946;6.140;2023-04-25T03:26:22;94671.13;;;10.17;81.77
21838;BME280;11081;45.946;6.140;2023-04-25T03:28:50;94672.31;;;10.21;80.45
21838;BME280;11081;45.946;6.140;2023-04-25T03:31:18;94668.53;;;10.29;79.57
21838;BME280;11081;45.946;6.140;2023-04-25T03:33:47;94667.94;;;10.15;79.90
21838;BME280;11081;45.946;6.140;2023-04-25T03:36:18;94677.50;;;9.98;78.29
21838;BME280;11081;45.946;6.140;2023-04-25T03:38:46;94670.94;;;9.84;78.37
21838;BME280;11081;45.946;6.140;2023-04-25T03:41:16;94674.78;;;9.93;78.19
21838;BME280;11081;45.946;6.140;2023-04-25T03:43:54;94671.25;;;9.99;77.11
21838;BME280;11081;45.946;6.140;2023-04-25T03:46:22;94681.22;;;10.14;76.27
21838;BME280;11081;45.946;6.140;2023-04-25T03:48:51;94687.13;;;10.09;74.96
21838;BME280;11081;45.946;6.140;2023-04-25T03:51:24;94681.94;;;10.21;74.74
21838;BME280;11081;45.946;6.140;2023-04-25T03:53:52;94679.75;;;10.29;74.08
21838;BME280;11081;45.946;6.140;2023-04-25T03:56:20;94688.59;;;10.28;74.85
21838;BME280;11081;45.946;6.140;2023-04-25T03:58:56;94689.06;;;10.25;74.23
21838;BME280;11081;45.946;6.140;2023-04-25T04:01:26;94689.06;;;10.25;73.40
21838;BME280;11081;45.946;6.140;2023-04-25T04:03:55;94696.28;;;10.47;73.89
21838;BME280;11081;45.946;6.140;2023-04-25T04:06:25;94692.94;;;10.63;73.06
21838;BME280;11081;45.946;6.140;2023-04-25T04:09:01;94704.78;;;10.82;73.68
21838;BME280;11081;45.946;6.140;2023-04-25T04:11:32;94692.47;;;10.94;72.26
21838;BME280;11081;45.946;6.140;2023-04-25T04:14:01;94698.81;;;10.98;72.21
21838;BME280;11081;45.946;6.140;2023-04-25T04:16:29;94701.97;;;11.00;71.70
21838;BME280;11081;45.946;6.140;2023-04-25T04:19:01;94701.53;;;11.04;72.68
21838;BME280;11081;45.946;6.140;2023-04-25T04:21:30;94707.75;;;11.03;73.64
21838;BME280;11081;45.946;6.140;2023-04-25T04:24:00;94705.63;;;10.99;73.94
21838;BME280;11081;45.946;6.140;2023-04-25T04:26:33;94702.75;;;10.84;74.73
21838;BME280;11081;45.946;6.140;2023-04-25T04:29:21;94697.97;;;10.81;75.85
21838;BME280;11081;45.946;6.140;2023-04-25T04:32:04;94702.44;;;10.97;75.90
21838;BME280;11081;45.946;6.140;2023-04-25T04:34:34;94703.47;;;10.96;76.04
21838;BME280;11081;45.946;6.140;2023-04-25T04:37:03;94702.22;;;10.71;76.57
21838;BME280;11081;45.946;6.140;2023-04-25T04:39:31;94703.09;;;10.48;77.33
21838;BME280;11081;45.946;6.140;2023-04-25T04:42:08;94717.00;;;10.65;77.11
21838;BME280;11081;45.946;6.140;2023-04-25T04:44:58;94714.09;;;10.78;76.86
21838;BME280;11081;45.946;6.140;2023-04-25T04:47:54;94708.63;;;10.91;75.48
21838;BME280;11081;45.946;6.140;2023-04-25T04:50:55;94714.94;;;10.95;75.33
21838;BME280;11081;45.946;6.140;2023-04-25T04:53:41;94721.97;;;11.07;75.64
21838;BME280;11081;45.946;6.140;2023-04-25T04:56:28;94731.94;;;11.10;75.84
21838;BME280;11081;45.946;6.140;2023-04-25T04:59:16;94729.25;;;11.05;76.04
21838;BME280;11081;45.946;6.140;2023-04-25T05:02:04;94728.09;;;11.00;76.09
21838;BME280;11081;45.946;6.140;2023-04-25T05:05:02;94736.16;;;10.99;75.39
21838;BME280;11081;45.946;6.140;2023-04-25T05:07:52;94742.66;;;10.96;76.93
21838;BME280;11081;45.946;6.140;2023-04-25T05:10:43;94748.41;;;10.70;77.36
21838;BME280;11081;45.946;6.140;2023-04-25T05:13:37;94755.34;;;10.64;79.88
21838;BME280;11081;45.946;6.140;2023-04-25T05:16:17;94756.16;;;10.65;79.44
21838;BME280;11081;45.946;6.140;2023-04-25T05:18:55;94756.34;;;10.75;78.58
21838;BME280;11081;45.946;6.140;2023-04-25T05:21:42;94758.59;;;10.83;78.36
21838;BME280;11081;45.946;6.140;2023-04-25T05:24:38;94755.84;;;10.90;79.04
21838;BME280;11081;45.946;6.140;2023-04-25T05:27:13;94758.13;;;10.86;79.91
21838;BME280;11081;45.946;6.140;2023-04-25T05:30:05;94762.25;;;10.59;80.45
21838;BME280;11081;45.946;6.140;2023-04-25T05:32:52;94765.78;;;10.53;81.03
21838;BME280;11081;45.946;6.140;2023-04-25T05:35:20;94769.66;;;10.62;80.95
21838;BME280;11081;45.946;6.140;2023-04-25T05:37:50;94769.94;;;10.77;79.74
21838;BME280;11081;45.946;6.140;2023-04-25T05:40:23;94766.53;;;10.88;80.03
21838;BME280;11081;45.946;6.140;2023-04-25T05:43:09;94761.38;;;10.93;79.41
21838;BME280;11081;45.946;6.140;2023-04-25T05:45:54;94766.69;;;10.98;80.11
21838;BME280;11081;45.946;6.140;2023-04-25T05:48:36;94776.25;;;11.05;80.72
21838;BME280;11081;45.946;6.140;2023-04-25T05:51:24;94785.75;;;11.11;79.93
21838;BME280;11081;45.946;6.140;2023-04-25T05:54:11;94781.63;;;11.15;80.09
21838;BME280;11081;45.946;6.140;2023-04-25T05:56:41;94782.75;;;11.19;79.88
21838;BME280;11081;45.946;6.140;2023-04-25T05:59:09;94782.28;;;11.22;79.29
21838;BME280;11081;45.946;6.140;2023-04-25T06:01:37;94777.06;;;11.22;79.38
21838;BME280;11081;45.946;6.140;2023-04-25T06:04:05;94782.28;;;11.22;79.01
21838;BME280;11081;45.946;6.140;2023-04-25T06:06:34;94791.16;;;11.21;79.54
21838;BME280;11081;45.946;6.140;2023-04-25T06:09:02;94779.13;;;11.20;79.66
21838;BME280;11081;45.946;6.140;2023-04-25T06:11:30;94781.38;;;11.28;79.77
21838;BME280;11081;45.946;6.140;2023-04-25T06:14:00;94786.13;;;11.31;79.98
21838;BME280;11081;45.946;6.140;2023-04-25T06:16:29;94782.97;;;11.29;79.93
21838;BME280;11081;45.946;6.140;2023-04-25T06:18:57;94784.53;;;11.30;80.38
21838;BME280;11081;45.946;6.140;2023-04-25T06:21:25;94787.25;;;11.35;79.62
21838;BME280;11081;45.946;6.140;2023-04-25T06:23:54;94786.44;;;11.35;80.37
21838;BME280;11081;45.946;6.140;2023-04-25T06:26:23;94782.81;;;11.36;79.83
21838;BME280;11081;45.946;6.140;2023-04-25T06:28:51;94788.34;;;11.39;80.29
21838;BME280;11081;45.946;6.140;2023-04-25T06:31:21;94792.78;;;11.39;79.23
21838;BME280;11081;45.946;6.140;2023-04-25T06:33:50;94788.25;;;11.34;78.05
21838;BME280;11081;45.946;6.140;2023-04-25T06:36:23;94792.47;;;11.35;78.01
21838;BME280;11081;45.946;6.140;2023-04-25T06:38:55;94795.16;;;11.40;78.26
21838;BME280;11081;45.946;6.140;2023-04-25T06:41:23;94798.34;;;11.42;78.04
21838;BME280;11081;45.946;6.140;2023-04-25T06:43:52;94801.97;;;11.41;77.84
21838;BME280;11081;45.946;6.140;2023-04-25T06:46:30;94804.13;;;11.44;77.96
21838;BME280;11081;45.946;6.140;2023-04-25T06:48:59;94807.88;;;11.48;77.67
21838;BME280;11081;45.946;6.140;2023-04-25T06:51:27;94804.53;;;11.53;77.59
21838;BME280;11081;45.946;6.140;2023-04-25T06:53:57;94807.41;;;11.51;77.83
21838;BME280;11081;45.946;6.140;2023-04-25T06:56:30;94808.34;;;11.45;77.52
21838;BME280;11081;45.946;6.140;2023-04-25T06:59:08;94806.16;;;11.42;78.54
21838;BME280;11081;45.946;6.140;2023-04-25T07:01:40;94802.16;;;11.51;78.09
21838;BME280;11081;45.946;6.140;2023-04-25T07:04:14;94796.00;;;11.57;77.87
21838;BME280;11081;45.946;6.140;2023-04-25T07:06:52;94808.03;;;11.58;78.07
21838;BME280;11081;45.946;6.140;2023-04-25T07:09:26;94805.97;;;11.60;78.01
21838;BME280;11081;45.946;6.140;2023-04-25T07:11:55;94792.97;;;11.66;77.61
21838;BME280;11081;45.946;6.140;2023-04-25T07:14:23;94804.56;;;11.70;77.33
21838;BME280;11081;45.946;6.140;2023-04-25T07:16:53;94809.09;;;11.74;77.24
21838;BME280;11081;45.946;6.140;2023-04-25T07:19:24;94810.00;;;11.80;76.38
21838;BME280;11081;45.946;6.140;2023-04-25T07:21:56;94816.81;;;11.81;75.61
21838;BME280;11081;45.946;6.140;2023-04-25T07:24:25;94810.00;;;11.80;75.81
21838;BME280;11081;45.946;6.140;2023-04-25T07:26:54;94813.16;;;11.82;76.12
21838;BME280;11081;45.946;6.140;2023-04-25T07:29:33;94808.50;;;11.84;76.14
21838;BME280;11081;45.946;6.140;2023-04-25T07:32:05;94811.09;;;11.84;76.36
21838;BME280;11081;45.946;6.140;2023-04-25T07:34:34;94816.34;;;11.84;75.43
21838;BME280;11081;45.946;6.140;2023-04-25T07:37:04;94819.31;;;11.76;75.33
21838;BME280;11081;45.946;6.140;2023-04-25T07:39:40;94811.88;;;11.68;75.58
21838;BME280;11081;45.946;6.140;2023-04-25T07:42:08;94823.72;;;11.58;74.98
21838;BME280;11081;45.946;6.140;2023-04-25T07:44:40;94819.59;;;11.63;75.19
21838;BME280;11081;45.946;6.140;2023-04-25T07:47:12;94822.31;;;11.68;73.56
21838;BME280;11081;45.946;6.140;2023-04-25T07:49:41;94827.41;;;11.74;73.11
21838;BME280;11081;45.946;6.140;2023-04-25T07:52:09;94829.31;;;11.79;73.09
21838;BME280;11081;45.946;6.140;2023-04-25T07:54:46;94837.72;;;11.81;72.99
21838;BME280;11081;45.946;6.140;2023-04-25T07:57:20;94840.22;;;11.76;73.36
21838;BME280;11081;45.946;6.140;2023-04-25T07:59:49;94840.09;;;11.82;73.50
21838;BME280;11081;45.946;6.140;2023-04-25T08:02:19;94847.56;;;12.07;72.77
21838;BME280;11081;45.946;6.140;2023-04-25T08:04:47;94838.72;;;12.08;71.89
21838;BME280;11081;45.946;6.140;2023-04-25T08:07:17;94838.84;;;12.02;70.27
21838;BME280;11081;45.946;6.140;2023-04-25T08:09:49;94848.38;;;11.91;69.64
21838;BME280;11081;45.946;6.140;2023-04-25T08:12:31;94861.41;;;11.34;68.29
21838;BME280;11081;45.946;6.140;2023-04-25T08:15:00;94854.91;;;10.96;67.80
21838;BME280;11081;45.946;6.140;2023-04-25T08:17:34;94850.59;;;11.02;66.99
21838;BME280;11081;45.946;6.140;2023-04-25T08:20:02;94860.25;;;11.02;67.95
21838;BME280;11081;45.946;6.140;2023-04-25T08:22:32;94860.47;;;11.12;67.14
21838;BME280;11081;45.946;6.140;2023-04-25T08:25:18;94865.72;;;10.88;66.05
21838;BME280;11081;45.946;6.140;2023-04-25T08:27:47;94866.16;;;11.09;66.31
21838;BME280;11081;45.946;6.140;2023-04-25T08:30:18;94873.44;;;11.07;67.61
21838;BME280;11081;45.946;6.140;2023-04-25T08:32:47;94868.78;;;10.97;65.33
21838;BME280;11081;45.946;6.140;2023-04-25T08:35:39;94875.91;;;11.13;64.68
21838;BME280;11081;45.946;6.140;2023-04-25T08:38:08;94873.66;;;10.93;65.63
21838;BME280;11081;45.946;6.140;2023-04-25T08:40:38;94873.44;;;11.07;65.42
21838;BME280;11081;45.946;6.140;2023-04-25T08:43:13;94887.03;;;11.09;67.13
21838;BME280;11081;45.946;6.140;2023-04-25T08:45:42;94889.94;;;11.24;67.53
21838;BME280;11081;45.946;6.140;2023-04-25T08:48:17;94894.66;;;11.50;67.17
21838;BME280;11081;45.946;6.140;2023-04-25T08:50:50;94900.75;;;11.68;65.50
21838;BME280;11081;45.946;6.140;2023-04-25T08:53:25;94900.81;;;11.44;64.50
21838;BME280;11081;45.946;6.140;2023-04-25T08:55:58;94912.59;;;11.58;64.35
21838;BME280;11081;45.946;6.140;2023-04-25T08:58:33;94912.28;;;11.43;65.36
21838;BME280;11081;45.946;6.140;2023-04-25T09:01:01;94916.06;;;12.04;64.65
21838;BME280;11081;45.946;6.140;2023-04-25T09:03:39;94915.94;;;12.28;63.50
21838;BME280;11081;45.946;6.140;2023-04-25T09:06:09;94910.53;;;12.17;64.38
21838;BME280;11081;45.946;6.140;2023-04-25T09:08:38;94913.09;;;12.12;64.74
21838;BME280;11081;45.946;6.140;2023-04-25T09:11:06;94919.53;;;11.93;65.77
21838;BME280;11081;45.946;6.140;2023-04-25T09:13:35;94922.72;;;11.95;66.21
21838;BME280;11081;45.946;6.140;2023-04-25T09:16:21;94908.13;;;11.99;66.59
21838;BME280;11081;45.946;6.140;2023-04-25T09:19:21;94921.00;;;12.17;64.91
21838;BME280;11081;45.946;6.140;2023-04-25T09:22:10;94923.44;;;12.07;65.11
21838;BME280;11081;45.946;6.140;2023-04-25T09:24:40;94929.06;;;11.99;65.01
21838;BME280;11081;45.946;6.140;2023-04-25T09:27:11;94939.03;;;12.02;65.42
21838;BME280;11081;45.946;6.140;2023-04-25T09:29:40;94921.75;;;12.01;65.54
21838;BME280;11081;45.946;6.140;2023-04-25T09:32:18;94934.94;;;12.06;64.73
21838;BME280;11081;45.946;6.140;2023-04-25T09:34:52;94931.63;;;12.28;64.57
21838;BME280;11081;45.946;6.140;2023-04-25T09:37:23;94927.88;;;12.52;63.97
21838;BME280;11081;45.946;6.140;2023-04-25T09:40:14;94922.53;;;12.80;62.63
21838;BME280;11081;45.946;6.140;2023-04-25T09:42:58;94926.25;;;13.01;62.39
21838;BME280;11081;45.946;6.140;2023-04-25T09:45:29;94922.59;;;13.19;62.02
21838;BME280;11081;45.946;6.140;2023-04-25T09:48:03;94925.94;;;13.36;62.19
21838;BME280;11081;45.946;6.140;2023-04-25T09:50:37;94924.38;;;13.57;60.99
21838;BME280;11081;45.946;6.140;2023-04-25T09:53:10;94919.00;;;13.47;60.40
21838;BME280;11081;45.946;6.140;2023-04-25T09:56:08;94915.81;;;13.67;61.36
21838;BME280;11081;45.946;6.140;2023-04-25T09:58:38;94916.19;;;13.76;60.95
21838;BME280;11081;45.946;6.140;2023-04-25T10:01:08;94916.03;;;13.87;60.37
21838;BME280;11081;45.946;6.140;2023-04-25T10:03:49;94917.38;;;13.90;60.40
21838;BME280;11081;45.946;6.140;2023-04-25T10:06:40;94914.78;;;13.95;59.77
21838;BME280;11081;45.946;6.140;2023-04-25T10:09:10;94913.63;;;14.08;59.36
21838;BME280;11081;45.946;6.140;2023-04-25T10:11:39;94914.72;;;14.12;60.02
21838;BME280;11081;45.946;6.140;2023-04-25T10:14:08;94918.25;;;13.95;60.35
21838;BME280;11081;45.946;6.140;2023-04-25T10:16:37;94911.25;;;13.79;60.21
21838;BME280;11081;45.946;6.140;2023-04-25T10:19:06;94906.91;;;13.68;59.97
21838;BME280;11081;45.946;6.140;2023-04-25T10:21:37;94907.72;;;13.47;60.10
21838;BME280;11081;45.946;6.140;2023-04-25T10:24:10;94905.03;;;13.41;58.97
21838;BME280;11081;45.946;6.140;2023-04-25T10:26:38;94894.06;;;13.45;59.36
21838;BME280;11081;45.946;6.140;2023-04-25T10:29:06;94901.47;;;13.53;59.14
21838;BME280;11081;45.946;6.140;2023-04-25T10:31:44;94904.13;;;13.75;57.10
21838;BME280;11081;45.946;6.140;2023-04-25T10:34:12;94916.09;;;13.92;57.09
21838;BME280;11081;45.946;6.140;2023-04-25T10:36:41;94904.00;;;13.91;55.83
21838;BME280;11081;45.946;6.140;2023-04-25T10:39:10;94910.84;;;13.92;56.55
21838;BME280;11081;45.946;6.140;2023-04-25T10:41:52;94903.50;;;13.94;53.87
21838;BME280;11081;45.946;6.140;2023-04-25T10:44:20;94908.75;;;13.94;55.12
21838;BME280;11081;45.946;6.140;2023-04-25T10:46:48;94915.69;;;13.79;55.81
21838;BME280;11081;45.946;6.140;2023-04-25T10:49:30;94907.59;;;13.80;55.23
21838;BME280;11081;45.946;6.140;2023-04-25T10:52:18;94911.88;;;13.91;53.77
21838;BME280;11081;45.946;6.140;2023-04-25T10:54:51;94916.19;;;14.02;55.50
21838;BME280;11081;45.946;6.140;2023-04-25T10:57:35;94908.09;;;14.36;55.09
21838;BME280;11081;45.946;6.140;2023-04-25T11:00:12;94914.13;;;14.58;54.11
21838;BME280;11081;45.946;6.140;2023-04-25T11:02:43;94913.66;;;14.72;54.41
21838;BME280;11081;45.946;6.140;2023-04-25T11:05:22;94906.78;;;14.60;53.74
21838;BME280;11081;45.946;6.140;2023-04-25T11:07:51;94904.69;;;14.62;52.56
21838;BME280;11081;45.946;6.140;2023-04-25T11:10:34;94917.28;;;14.07;53.41
21838;BME280;11081;45.946;6.140;2023-04-25T11:13:03;94913.63;;;13.37;51.38
21838;BME280;11081;45.946;6.140;2023-04-25T11:15:31;94918.47;;;12.90;52.98
21838;BME280;11081;45.946;6.140;2023-04-25T11:17:59;94924.06;;;12.76;53.32
21838;BME280;11081;45.946;6.140;2023-04-25T11:20:29;94918.50;;;12.56;54.55
21838;BME280;11081;45.946;6.140;2023-04-25T11:22:58;94926.75;;;12.31;55.58
21838;BME280;11081;45.946;6.140;2023-04-25T11:25:26;94920.06;;;12.24;54.86
21838;BME280;11081;45.946;6.140;2023-04-25T11:27:57;94907.19;;;12.05;55.91
21838;BME280;11081;45.946;6.140;2023-04-25T11:30:27;94903.66;;;12.11;55.89
21838;BME280;11081;45.946;6.140;2023-04-25T11:32:57;94906.19;;;12.40;56.30
21838;BME280;11081;45.946;6.140;2023-04-25T11:35:25;94903.59;;;12.40;55.11
21838;BME280;11081;45.946;6.140;2023-04-25T11:37:53;94911.69;;;12.72;56.04
21838;BME280;11081;45.946;6.140;2023-04-25T11:40:21;94907.81;;;13.13;53.49
21838;BME280;11081;45.946;6.140;2023-04-25T11:42:49;94910.03;;;13.04;53.95
21838;BME280;11081;45.946;6.140;2023-04-25T11:45:22;94901.53;;;13.14;54.33
21838;BME280;11081;45.946;6.140;2023-04-25T11:47:51;94906.34;;;12.83;53.57
21838;BME280;11081;45.946;6.140;2023-04-25T11:50:19;94916.75;;;12.45;53.07
21838;BME280;11081;45.946;6.140;2023-04-25T11:52:48;94911.69;;;12.55;52.99
21838;BME280;11081;45.946;6.140;2023-04-25T11:55:18;94910.84;;;12.88;54.55
21838;BME280;11081;45.946;6.140;2023-04-25T11:57:48;94906.88;;;12.86;55.74
21838;BME280;11081;45.946;6.140;2023-04-25T12:00:18;94921.97;;;12.78;57.94
21838;BME280;11081;45.946;6.140;2023-04-25T12:02:51;94901.34;;;12.65;56.50
21838;BME280;11081;45.946;6.140;2023-04-25T12:05:21;94907.00;;;12.57;56.17
21838;BME280;11081;45.946;6.140;2023-04-25T12:07:54;94920.88;;;12.58;55.02
21838;BME280;11081;45.946;6.140;2023-04-25T12:10:24;94907.69;;;12.86;56.03
21838;BME280;11081;45.946;6.140;2023-04-25T12:12:52;94914.91;;;12.79;54.43
21838;BME280;11081;45.946;6.140;2023-04-25T12:15:24;94907.38;;;12.82;55.30
21838;BME280;11081;45.946;6.140;2023-04-25T12:17:54;94918.56;;;12.61;53.77
21838;BME280;11081;45.946;6.140;2023-04-25T12:20:24;94919.59;;;12.60;54.37
21838;BME280;11081;45.946;6.140;2023-04-25T12:22:53;94907.66;;;13.03;53.47
21838;BME280;11081;45.946;6.140;2023-04-25T12:25:35;94911.47;;;13.12;53.85
21838;BME280;11081;45.946;6.140;2023-04-25T12:28:13;94926.53;;;13.22;55.31
21838;BME280;11081;45.946;6.140;2023-04-25T12:30:58;94917.78;;;13.16;52.46
21838;BME280;11081;45.946;6.140;2023-04-25T12:33:30;94920.41;;;12.77;54.71
21838;BME280;11081;45.946;6.140;2023-04-25T12:35:58;94930.25;;;12.70;54.54
21838;BME280;11081;45.946;6.140;2023-04-25T12:38:35;94922.41;;;13.09;53.02
21838;BME280;11081;45.946;6.140;2023-04-25T12:41:04;94916.13;;;13.49;53.20
21838;BME280;11081;45.946;6.140;2023-04-25T12:43:32;94916.50;;;13.79;52.40
21838;BME280;11081;45.946;6.140;2023-04-25T12:46:00;94924.41;;;13.84;51.02
21838;BME280;11081;45.946;6.140;2023-04-25T12:48:30;94920.66;;;13.75;52.31
21838;BME280;11081;45.946;6.140;2023-04-25T12:50:58;94923.50;;;13.95;51.98
21838;BME280;11081;45.946;6.140;2023-04-25T12:53:26;94920.56;;;14.19;51.53
21838;BME280;11081;45.946;6.140;2023-04-25T12:55:54;94916.75;;;13.56;50.87
21838;BME280;11081;45.946;6.140;2023-04-25T12:58:22;94926.06;;;13.68;50.60
21838;BME280;11081;45.946;6.140;2023-04-25T13:00:51;94922.69;;;13.73;49.52
21838;BME280;11081;45.946;6.140;2023-04-25T13:03:19;94913.72;;;14.18;49.59
21838;BME280;11081;45.946;6.140;2023-04-25T13:05:49;94912.66;;;14.78;50.27
21838;BME280;11081;45.946;6.140;2023-04-25T13:08:19;94911.31;;;15.12;49.95
21838;BME280;11081;45.946;6.140;2023-04-25T13:10:47;94920.25;;;15.16;49.43
21838;BME280;11081;45.946;6.140;2023-04-25T13:13:15;94914.38;;;14.35;49.31
21838;BME280;11081;45.946;6.140;2023-04-25T13:15:43;94922.66;;;14.17;51.05
21838;BME280;11081;45.946;6.140;2023-04-25T13:18:11;94904.34;;;14.54;49.67
21838;BME280;11081;45.946;6.140;2023-04-25T13:20:39;94908.94;;;15.16;50.23
21838;BME280;11081;45.946;6.140;2023-04-25T13:23:08;94910.91;;;15.41;47.76
21838;BME280;11081;45.946;6.140;2023-04-25T13:25:37;94916.69;;;14.53;46.65
21838;BME280;11081;45.946;6.140;2023-04-25T13:28:04;94908.34;;;14.34;46.63